sensor_id;sensor_type;location;lat;lon;timestamp;pressure;altitude;pressure_sealevel;temperature;humidity
10806;BME280;5455;53.224;6.000;2023-03-24T00:00:26;99626.53;;;11.42;100.00
10806;BME280;5455;53.224;6.000;2023-03-24T00:02:53;99617.47;;;11.42;100.00
10806;BME280;5455;53.224;6.000;2023-03-24T00:05:21;99613.16;;;11.41;100.00
10806;BME280;5455;53.224;6.000;2023-03-24T00:07:49;99608.78;;;11.40;100.00
10806;BME280;5455;53.224;6.000;2023-03-24T00:10:21;99596.16;;;11.39;100.00
10806;BME280;5455;53.224;6.000;2023-03-24T00:12:50;99602.47;;;11.36;100.00
10806;BME280;5455;53.224;6.000;2023-03-24T00:15:19;99598.97;;;11.35;100.00
10806;BME280;5455;53.224;6.000;2023-03-24T00:17:48;99583.56;;;11.34;100.00
10806;BME280;5455;53.224;6.000;2023-03-24T00:20:20;99575.69;;;11.33;100.00
10806;BME280;5455;53.224;6.000;2023-03-24T00:22:50;99580.81;;;11.34;100.00
10806;BME280;5455;53.224;6.000;2023-03-24T00:25:26;99569.38;;;11.32;100.00
10806;BME280;5455;53.224;6.000;2023-03-24T00:27:55;99572.16;;;11.32;100.00
10806;BME280;5455;53.224;6.000;2023-03-24T00:30:24;99561.09;;;11.29;100.00
10806;BME280;5455;53.224;6.000;2023-03-24T00:32:52;99553.63;;;11.29;100.00
10806;BME280;5455;53.224;6.000;2023-03-24T00:35:19;99553.63;;;11.29;100.00
10806;BME280;5455;53.224;6.000;2023-03-24T00:37:46;99539.03;;;11.29;100.00
10806;BME280;5455;53.224;6.000;2023-03-24T00:40:17;99543.34;;;11.30;100.00
10806;BME280;5455;53.224;6.000;2023-03-24T00:42:45;99542.19;;;11.31;100.00
10806;BME280;5455;53.224;6.000;2023-03-24T00:45:16;99535.88;;;11.30;100.00
10806;BME280;5455;53.224;6.000;2023-03-24T00:47:46;99528.00;;;11.29;100.00
10806;BME280;5455;53.224;6.000;2023-03-24T00:50:17;99518.94;;;11.25;100.00
10806;BME280;5455;53.224;6.000;2023-03-24T00:52:47;99520.91;;;11.24;100.00
10806;BME280;5455;53.224;6.000;2023-03-24T00:55:15;99495.31;;;11.20;100.00
10806;BME280;5455;53.224;6.000;2023-03-24T00:57:45;99490.53;;;11.21;100.00
10806;BME280;5455;53.224;6.000;2023-03-24T01:00:21;99486.63;;;11.22;100.00
10806;BME280;5455;53.224;6.000;2023-03-24T01:02:56;99486.63;;;11.22;100.00
10806;BME280;5455;53.224;6.000;2023-03-24T01:05:29;99482.69;;;11.26;100.00
10806;BME280;5455;53.224;6.000;2023-03-24T01:07:58;99472.41;;;11.27;100.00
10806;BME280;5455;53.224;6.000;2023-03-24T01:10:32;99466.88;;;11.27;100.00
10806;BME280;5455;53.224;6.000;2023-03-24T01:13:00;99463.75;;;11.25;100.00
10806;BME280;5455;53.224;6.000;2023-03-24T01:15:32;99456.66;;;11.24;100.00
10806;BME280;5455;53.224;6.000;2023-03-24T01:18:00;99444.44;;;11.25;100.00
10806;BME280;5455;53.224;6.000;2023-03-24T01:20:29;99444.44;;;11.25;100.00
10806;BME280;5455;53.224;6.000;2023-03-24T01:23:02;99434.97;;;11.26;100.00
10806;BME280;5455;53.224;6.000;2023-03-24T01:25:31;99431.81;;;11.27;100.00
10806;BME280;5455;53.224;6.000;2023-03-24T01:27:58;99432.59;;;11.28;100.00
10806;BME280;5455;53.224;6.000;2023-03-24T01:30:27;99425.50;;;11.30;100.00
10806;BME280;5455;53.224;6.000;2023-03-24T01:36:26;99420.38;;;11.32;100.00
10806;BME280;5455;53.224;6.000;2023-03-24T01:38:53;99410.13;;;11.33;100.00
10806;BME280;5455;53.224;6.000;2023-03-24T01:41:20;99415.63;;;11.33;100.00
10806;BME280;5455;53.224;6.000;2023-03-24T01:43:47;99399.47;;;11.35;100.00
10806;BME280;5455;53.224;6.000;2023-03-24T01:46:17;99399.88;;;11.37;100.00
10806;BME280;5455;53.224;6.000;2023-03-24T01:48:51;99392.38;;;11.37;100.00
10806;BME280;5455;53.224;6.000;2023-03-24T01:51:28;99388.03;;;11.40;100.00
10806;BME280;5455;53.224;6.000;2023-03-24T01:54:08;99390.78;;;11.36;100.00
10806;BME280;5455;53.224;6.000;2023-03-24T01:56:41;99381.34;;;11.34;100.00
10806;BME280;5455;53.224;6.000;2023-03-24T01:59:12;99369.13;;;11.35;100.00
10806;BME280;5455;53.224;6.000;2023-03-24T02:01:57;99378.59;;;11.34;100.00
10806;BME280;5455;53.224;6.000;2023-03-24T02:04:43;99369.50;;;11.33;100.00
10806;BME280;5455;53.224;6.000;2023-03-24T02:09:58;99365.97;;;11.33;100.00
10806;BME280;5455;53.224;6.000;2023-03-24T02:12:25;99365.16;;;11.36;100.00
10806;BME280;5455;53.224;6.000;2023-03-24T02:14:54;99348.59;;;11.36;100.00
10806;BME280;5455;53.224;6.000;2023-03-24T02:26:26;99347.41;;;11.44;100.00
10806;BME280;5455;53.224;6.000;2023-03-24T02:31:47;99324.97;;;11.38;100.00
10806;BME280;5455;53.224;6.000;2023-03-24T02:45:34;99313.50;;;11.43;100.00
10806;BME280;5455;53.224;6.000;2023-03-24T02:48:36;99330.44;;;11.45;100.00
10806;BME280;5455;53.224;6.000;2023-03-24T02:51:24;99346.19;;;11.52;100.00
10806;BME280;5455;53.224;6.000;2023-03-24T02:54:01;99374.94;;;11.54;100.00
10806;BME280;5455;53.224;6.000;2023-03-24T02:56:36;99370.63;;;11.53;100.00
10806;BME280;5455;53.224;6.000;2023-03-24T03:02:08;99383.72;;;11.32;100.00
10806;BME280;5455;53.224;6.000;2023-03-24T03:04:49;99396.38;;;11.19;100.00
10806;BME280;5455;53.224;6.000;2023-03-24T03:07:21;99399.56;;;11.06;100.00
10806;BME280;5455;53.224;6.000;2023-03-24T03:10:02;99392.06;;;11.00;100.00
10806;BME280;5455;53.224;6.000;2023-03-24T03:12:34;99407.88;;;10.96;100.00
10806;BME280;5455;53.224;6.000;2023-03-24T03:15:24;99403.94;;;10.93;100.00
10806;BME280;5455;53.224;6.000;2023-03-24T03:18:07;99417.31;;;10.91;100.00
10806;BME280;5455;53.224;6.000;2023-03-24T03:20:42;99424.81;;;10.87;100.00
10806;BME280;5455;53.224;6.000;2023-03-24T03:23:22;99418.09;;;10.85;100.00
10806;BME280;5455;53.224;6.000;2023-03-24T03:25:57;99429.91;;;10.82;100.00
10806;BME280;5455;53.224;6.000;2023-03-24T03:28:35;99443.31;;;10.80;100.00
10806;BME280;5455;53.224;6.000;2023-03-24T03:31:07;99443.31;;;10.76;100.00
10806;BME280;5455;53.224;6.000;2023-03-24T03:33:41;99449.25;;;10.75;100.00
10806;BME280;5455;53.224;6.000;2023-03-24T03:36:20;99444.09;;;10.73;100.00
10806;BME280;5455;53.224;6.000;2023-03-24T03:41:44;99477.19;;;10.66;100.00
10806;BME280;5455;53.224;6.000;2023-03-24T03:44:11;99476.78;;;10.64;100.00
10806;BME280;5455;53.224;6.000;2023-03-24T03:46:39;99472.84;;;10.58;100.00
10806;BME280;5455;53.224;6.000;2023-03-24T03:49:16;99468.53;;;10.54;100.00
10806;BME280;5455;53.224;6.000;2023-03-24T03:51:44;99491.72;;;10.49;100.00
10806;BME280;5455;53.224;6.000;2023-03-24T03:54:12;99480.31;;;10.43;100.00
10806;BME280;5455;53.224;6.000;2023-03-24T03:56:46;99483.84;;;10.44;100.00
10806;BME280;5455;53.224;6.000;2023-03-24T03:59:31;99501.16;;;10.37;100.00
10806;BME280;5455;53.224;6.000;2023-03-24T04:22:55;99541.34;;;9.63;100.00
10806;BME280;5455;53.224;6.000;2023-03-24T04:25:34;99557.44;;;9.57;100.00
10806;BME280;5455;53.224;6.000;2023-03-24T04:28:23;99555.00;;;9.45;100.00
10806;BME280;5455;53.224;6.000;2023-03-24T04:31:18;99554.56;;;9.39;100.00
10806;BME280;5455;53.224;6.000;2023-03-24T04:33:57;99558.88;;;9.37;100.00
10806;BME280;5455;53.224;6.000;2023-03-24T04:36:40;99579.28;;;9.32;100.00
10806;BME280;5455;53.224;6.000;2023-03-24T04:39:35;99567.88;;;9.30;100.00
10806;BME280;5455;53.224;6.000;2023-03-24T04:42:40;99589.44;;;9.28;100.00
10806;BME280;5455;53.224;6.000;2023-03-24T04:45:12;99585.06;;;9.20;100.00
10806;BME280;5455;53.224;6.000;2023-03-24T04:48:01;99593.69;;;9.15;100.00
10806;BME280;5455;53.224;6.000;2023-03-24T04:50:59;99588.19;;;9.15;100.00
10806;BME280;5455;53.224;6.000;2023-03-24T04:53:37;99599.59;;;9.21;100.00
10806;BME280;5455;53.224;6.000;2023-03-24T04:59:04;99595.38;;;9.30;100.00
10806;BME280;5455;53.224;6.000;2023-03-24T05:01:34;99594.97;;;9.32;100.00
10806;BME280;5455;53.224;6.000;2023-03-24T05:04:24;99590.28;;;9.32;100.00
10806;BME280;5455;53.224;6.000;2023-03-24T05:06:53;99594.56;;;9.30;100.00
10806;BME280;5455;53.224;6.000;2023-03-24T05:09:24;99600.84;;;9.27;100.00
10806;BME280;5455;53.224;6.000;2023-03-24T05:11:53;99614.59;;;9.27;100.00
10806;BME280;5455;53.224;6.000;2023-03-24T05:14:23;99616.19;;;9.31;100.00
10806;BME280;5455;53.224;6.000;2023-03-24T05:16:51;99615.41;;;9.31;100.00
10806;BME280;5455;53.224;6.000;2023-03-24T05:19:19;99616.97;;;9.32;100.00
10806;BME280;5455;53.224;6.000;2023-03-24T05:21:46;99628.78;;;9.32;100.00
10806;BME280;5455;53.224;6.000;2023-03-24T05:24:13;99624.84;;;9.30;100.00
10806;BME280;5455;53.224;6.000;2023-03-24T05:26:41;99630.66;;;9.21;100.00
10806;BME280;5455;53.224;6.000;2023-03-24T05:29:13;99631.34;;;9.11;100.00
10806;BME280;5455;53.224;6.000;2023-03-24T05:31:41;99639.53;;;9.04;100.00
10806;BME280;5455;53.224;6.000;2023-03-24T05:34:10;99644.56;;;8.99;100.00
10806;BME280;5455;53.224;6.000;2023-03-24T05:36:47;99645.31;;;8.92;100.00
10806;BME280;5455;53.224;6.000;2023-03-24T05:39:19;99638.22;;;8.91;100.00
10806;BME280;5455;53.224;6.000;2023-03-24T05:41:54;99644.91;;;8.94;100.00
10806;BME280;5455;53.224;6.000;2023-03-24T05:44:21;99646.50;;;8.95;100.00
10806;BME280;5455;53.224;6.000;2023-03-24T05:47:11;99643.78;;;8.98;100.00
10806;BME280;5455;53.224;6.000;2023-03-24T05:49:39;99657.91;;;8.97;100.00
10806;BME280;5455;53.224;6.000;2023-03-24T05:52:06;99669.69;;;8.97;100.00
10806;BME280;5455;53.224;6.000;2023-03-24T05:54:37;99657.50;;;8.95;100.00
10806;BME280;5455;53.224;6.000;2023-03-24T05:57:18;99663.78;;;8.95;100.00
10806;BME280;5455;53.224;6.000;2023-03-24T06:00:22;99672.13;;;9.06;100.00
10806;BME280;5455;53.224;6.000;2023-03-24T06:02:57;99680.03;;;9.11;100.00
10806;BME280;5455;53.224;6.000;2023-03-24T06:05:44;99679.72;;;9.16;100.00
10806;BME280;5455;53.224;6.000;2023-03-24T06:08:15;99675.41;;;9.18;100.00
10806;BME280;5455;53.224;6.000;2023-03-24T06:10:42;99684.03;;;9.17;100.00
10806;BME280;5455;53.224;6.000;2023-03-24T06:13:09;99679.25;;;9.10;100.00
10806;BME280;5455;53.224;6.000;2023-03-24T06:15:39;99687.09;;;9.08;100.00
10806;BME280;5455;53.224;6.000;2023-03-24T06:18:29;99693.75;;;9.07;100.00
10806;BME280;5455;53.224;6.000;2023-03-24T06:21:02;99690.59;;;9.05;100.00
10806;BME280;5455;53.224;6.000;2023-03-24T06:23:31;99699.63;;;9.06;100.00
10806;BME280;5455;53.224;6.000;2023-03-24T06:26:11;99702.50;;;9.20;100.00
10806;BME280;5455;53.224;6.000;2023-03-24T06:28:54;99706.19;;;9.34;100.00
10806;BME280;5455;53.224;6.000;2023-03-24T06:31:23;99716.47;;;9.41;100.00
10806;BME280;5455;53.224;6.000;2023-03-24T06:33:52;99710.97;;;9.41;100.00
10806;BME280;5455;53.224;6.000;2023-03-24T06:36:20;99720.06;;;9.45;100.00
10806;BME280;5455;53.224;6.000;2023-03-24T06:38:49;99718.16;;;9.53;100.00
10806;BME280;5455;53.224;6.000;2023-03-24T06:41:19;99726.13;;;9.65;100.00
10806;BME280;5455;53.224;6.000;2023-03-24T06:43:53;99722.19;;;9.62;100.00
10806;BME280;5455;53.224;6.000;2023-03-24T06:46:20;99739.13;;;9.64;100.00
10806;BME280;5455;53.224;6.000;2023-03-24T06:48:48;99747.38;;;9.64;100.00
10806;BME280;5455;53.224;6.000;2023-03-24T06:51:15;99748.22;;;9.72;100.00
10806;BME280;5455;53.224;6.000;2023-03-24T06:53:44;99744.66;;;9.71;100.00
10806;BME280;5455;53.224;6.000;2023-03-24T06:56:12;99749.47;;;9.81;100.00
10806;BME280;5455;53.224;6.000;2023-03-24T06:58:53;99748.28;;;9.82;100.00
10806;BME280;5455;53.224;6.000;2023-03-24T07:01:30;99755.03;;;9.88;100.00
10806;BME280;5455;53.224;6.000;2023-03-24T07:04:19;99757.00;;;9.88;100.00
10806;BME280;5455;53.224;6.000;2023-03-24T07:06:52;99766.94;;;10.00;100.00
10806;BME280;5455;53.224;6.000;2023-03-24T07:09:41;99773.66;;;10.06;100.00
10806;BME280;5455;53.224;6.000;2023-03-24T07:12:08;99766.22;;;10.10;100.00
10806;BME280;5455;53.224;6.000;2023-03-24T07:14:36;99776.16;;;10.18;100.00
10806;BME280;5455;53.224;6.000;2023-03-24T07:17:05;99780.91;;;10.21;100.00
10806;BME280;5455;53.224;6.000;2023-03-24T07:19:44;99799.03;;;10.25;100.00
10806;BME280;5455;53.224;6.000;2023-03-24T07:22:38;99780.50;;;10.22;100.00
10806;BME280;5455;53.224;6.000;2023-03-24T07:25:24;99803.34;;;10.23;100.00
10806;BME280;5455;53.224;6.000;2023-03-24T07:28:02;99799.00;;;10.22;100.00
10806;BME280;5455;53.224;6.000;2023-03-24T07:30:29;99808.44;;;10.21;100.00
10806;BME280;5455;53.224;6.000;2023-03-24T07:33:07;99804.91;;;10.20;100.00
10806;BME280;5455;53.224;6.000;2023-03-24T07:35:41;99808.84;;;10.23;100.00
10806;BME280;5455;53.224;6.000;2023-03-24T07:38:09;99808.84;;;10.23;100.00
10806;BME280;5455;53.224;6.000;2023-03-24T07:40:38;99821.06;;;10.25;100.00
10806;BME280;5455;53.224;6.000;2023-03-24T07:43:05;99817.94;;;10.27;100.00
10806;BME280;5455;53.224;6.000;2023-03-24T07:46:04;99823.91;;;10.39;100.00
10806;BME280;5455;53.224;6.000;2023-03-24T07:48:34;99818.84;;;10.45;100.00
10806;BME280;5455;53.224;6.000;2023-03-24T07:51:02;99825.59;;;10.51;100.00
10806;BME280;5455;53.224;6.000;2023-03-24T07:53:48;99820.50;;;10.57;100.00
10806;BME280;5455;53.224;6.000;2023-03-24T07:56:25;99825.72;;;10.69;100.00
10806;BME280;5455;53.224;6.000;2023-03-24T07:58:56;99829.69;;;10.75;100.00
10806;BME280;5455;53.224;6.000;2023-03-24T08:01:30;99840.34;;;10.80;100.00
10806;BME280;5455;53.224;6.000;2023-03-24T08:04:01;99834.91;;;10.90;100.00
10806;BME280;5455;53.224;6.000;2023-03-24T08:06:47;99851.47;;;10.97;100.00
10806;BME280;5455;53.224;6.000;2023-03-24T08:09:14;99847.50;;;10.95;100.00
10806;BME280;5455;53.224;6.000;2023-03-24T08:11:41;99856.97;;;10.97;100.00
10806;BME280;5455;53.224;6.000;2023-03-24T08:14:09;99855.41;;;10.96;100.00
10806;BME280;5455;53.224;6.000;2023-03-24T08:16:36;99871.66;;;11.16;100.00
10806;BME280;5455;53.224;6.000;2023-03-24T08:19:05;99875.59;;;11.15;100.00
10806;BME280;5455;53.224;6.000;2023-03-24T08:21:32;99869.28;;;11.11;100.00
10806;BME280;5455;53.224;6.000;2023-03-24T08:23:59;99864.97;;;11.17;100.00
10806;BME280;5455;53.224;6.000;2023-03-24T08:26:26;99870.84;;;11.12;100.00
10806;BME280;5455;53.224;6.000;2023-03-24T08:29:01;99875.94;;;11.06;100.00
10806;BME280;5455;53.224;6.000;2023-03-24T08:31:33;99879.03;;;10.97;100.00
10806;BME280;5455;53.224;6.000;2023-03-24T08:34:02;99879.44;;;10.96;100.00
10806;BME280;5455;53.224;6.000;2023-03-24T08:36:29;99887.72;;;10.96;100.00
10806;BME280;5455;53.224;6.000;2023-03-24T08:38:58;99894.88;;;11.07;100.00
10806;BME280;5455;53.224;6.000;2023-03-24T08:41:27;99901.19;;;11.12;100.00
10806;BME280;5455;53.224;6.000;2023-03-24T08:44:01;99899.69;;;11.25;100.00
10806;BME280;5455;53.224;6.000;2023-03-24T08:46:33;99889.81;;;11.24;100.00
10806;BME280;5455;53.224;6.000;2023-03-24T08:49:02;99905.63;;;11.30;100.00
10806;BME280;5455;53.224;6.000;2023-03-24T08:51:30;99906.84;;;11.40;100.00
10806;BME280;5455;53.224;6.000;2023-03-24T08:53:57;99925.44;;;11.50;100.00
10806;BME280;5455;53.224;6.000;2023-03-24T08:56:24;99918.34;;;11.49;100.00
10806;BME280;5455;53.224;6.000;2023-03-24T08:58:52;99927.00;;;11.47;100.00
10806;BME280;5455;53.224;6.000;2023-03-24T09:01:20;99928.22;;;11.53;100.00
10806;BME280;5455;53.224;6.000;2023-03-24T09:03:48;99925.84;;;11.52;100.00
10806;BME280;5455;53.224;6.000;2023-03-24T09:06:15;99931.78;;;11.61;100.00
10806;BME280;5455;53.224;6.000;2023-03-24T09:08:42;99927.88;;;11.62;100.00
10806;BME280;5455;53.224;6.000;2023-03-24T09:11:15;99929.09;;;11.75;100.00
10806;BME280;5455;53.224;6.000;2023-03-24T09:13:43;99947.19;;;11.62;100.00
10806;BME280;5455;53.224;6.000;2023-03-24T09:16:11;99944.00;;;11.53;100.00
10806;BME280;5455;53.224;6.000;2023-03-24T09:18:39;99944.78;;;11.57;100.00
10806;BME280;5455;53.224;6.000;2023-03-24T09:21:07;99948.72;;;11.52;100.00
10806;BME280;5455;53.224;6.000;2023-03-24T09:23:34;99948.59;;;11.28;100.00
10806;BME280;5455;53.224;6.000;2023-03-24T09:26:02;99945.78;;;11.17;100.00
10806;BME280;5455;53.224;6.000;2023-03-24T09:28:29;99940.69;;;11.30;100.00
10806;BME280;5455;53.224;6.000;2023-03-24T09:31:02;99943.13;;;11.42;100.00
10806;BME280;5455;53.224;6.000;2023-03-24T09:33:30;99958.44;;;11.25;100.00
10806;BME280;5455;53.224;6.000;2023-03-24T09:35:59;99962.81;;;11.37;100.00
10806;BME280;5455;53.224;6.000;2023-03-24T09:38:27;99965.31;;;11.56;100.00
10806;BME280;5455;53.224;6.000;2023-03-24T09:40:57;99962.97;;;11.65;100.00
10806;BME280;5455;53.224;6.000;2023-03-24T09:45:56;99969.38;;;11.76;100.00
10806;BME280;5455;53.224;6.000;2023-03-24T09:51:13;99970.06;;;11.59;100.00
10806;BME280;5455;53.224;6.000;2023-03-24T09:54:03;99974.28;;;11.42;100.00
10806;BME280;5455;53.224;6.000;2023-03-24T09:56:37;99972.78;;;11.52;100.00
10806;BME280;5455;53.224;6.000;2023-03-24T09:59:07;99996.97;;;11.73;100.00
10806;BME280;5455;53.224;6.000;2023-03-24T10:01:38;99997.34;;;11.75;100.00
10806;BME280;5455;53.224;6.000;2023-03-24T10:04:17;99989.13;;;11.85;100.00
10806;BME280;5455;53.224;6.000;2023-03-24T10:06:45;99995.44;;;11.82;100.00
10806;BME280;5455;53.224;6.000;2023-03-24T10:17:40;100000.81;;;11.61;100.00
10806;BME280;5455;53.224;6.000;2023-03-24T10:20:30;99997.81;;;11.80;100.00
10806;BME280;5455;53.224;6.000;2023-03-24T10:23:18;100006.75;;;11.59;100.00
10806;BME280;5455;53.224;6.000;2023-03-24T10:28:45;100020.66;;;11.81;100.00
10806;BME280;5455;53.224;6.000;2023-03-24T10:31:16;100012.78;;;11.79;100.00
10806;BME280;5455;53.224;6.000;2023-03-24T10:33:46;100012.81;;;11.86;100.00
10806;BME280;5455;53.224;6.000;2023-03-24T10:36:19;100005.75;;;11.99;100.00
10806;BME280;5455;53.224;6.000;2023-03-24T10:38:46;100018.47;;;12.25;100.00
10806;BME280;5455;53.224;6.000;2023-03-24T10:41:21;100023.63;;;12.34;100.00
10806;BME280;5455;53.224;6.000;2023-03-24T10:43:50;100028.81;;;12.49;100.00
10806;BME280;5455;53.224;6.000;2023-03-24T10:46:23;100020.94;;;12.55;100.00
10806;BME280;5455;53.224;6.000;2023-03-24T10:48:53;100029.63;;;12.64;100.00
10806;BME280;5455;53.224;6.000;2023-03-24T10:51:32;100029.63;;;12.67;100.00
10806;BME280;5455;53.224;6.000;2023-03-24T10:59:36;100033.91;;;12.44;100.00
10806;BME280;5455;53.224;6.000;2023-03-24T11:02:36;100031.94;;;12.34;100.00
10806;BME280;5455;53.224;6.000;2023-03-24T11:05:15;100026.38;;;12.30;100.00
10806;BME280;5455;53.224;6.000;2023-03-24T11:07:48;100030.00;;;12.52;100.00
10806;BME280;5455;53.224;6.000;2023-03-24T11:10:24;100028.81;;;12.49;100.00
10806;BME280;5455;53.224;6.000;2023-03-24T11:15:29;100040.31;;;12.83;100.00
10806;BME280;5455;53.224;6.000;2023-03-24T11:17:59;100021.72;;;12.52;100.00
10806;BME280;5455;53.224;6.000;2023-03-24T11:20:37;100033.13;;;12.40;100.00
10806;BME280;5455;53.224;6.000;2023-03-24T11:23:09;100044.19;;;12.40;100.00
10806;BME280;5455;53.224;6.000;2023-03-24T11:25:39;100046.13;;;12.32;100.00
10806;BME280;5455;53.224;6.000;2023-03-24T11:28:13;100052.41;;;12.19;100.00
10806;BME280;5455;53.224;6.000;2023-03-24T11:30:49;100043.72;;;12.13;100.00
10806;BME280;5455;53.224;6.000;2023-03-24T11:33:22;100050.44;;;12.15;100.00
10806;BME280;5455;53.224;6.000;2023-03-24T11:39:02;100046.22;;;12.71;100.00
10806;BME280;5455;53.224;6.000;2023-03-24T11:41:30;100047.00;;;12.71;100.00
10806;BME280;5455;53.224;6.000;2023-03-24T11:44:21;100046.66;;;12.91;100.00
10806;BME280;5455;53.224;6.000;2023-03-24T11:46:57;100045.44;;;12.95;100.00
10806;BME280;5455;53.224;6.000;2023-03-24T11:49:29;100048.63;;;13.04;100.00
10806;BME280;5455;53.224;6.000;2023-03-24T11:51:57;100048.66;;;13.11;100.00
10806;BME280;5455;53.224;6.000;2023-03-24T11:54:35;100044.28;;;12.93;100.00
10806;BME280;5455;53.224;6.000;2023-03-24T11:57:06;100045.06;;;12.93;100.00
10806;BME280;5455;53.224;6.000;2023-03-24T11:59:57;100030.44;;;12.89;100.00
10806;BME280;5455;53.224;6.000;2023-03-24T12:06:20;100039.50;;;12.58;100.00
10806;BME280;5455;53.224;6.000;2023-03-24T12:08:45;100041.09;;;12.73;100.00
10806;BME280;5455;53.224;6.000;2023-03-24T12:13:50;100038.69;;;12.57;100.00
10806;BME280;5455;53.224;6.000;2023-03-24T12:16:31;100039.84;;;12.42;100.00
10806;BME280;5455;53.224;6.000;2023-03-24T12:21:59;100045.06;;;12.76;100.00
10806;BME280;5455;53.224;6.000;2023-03-24T12:27:35;100041.91;;;12.88;100.00
10806;BME280;5455;53.224;6.000;2023-03-24T12:30:23;100041.09;;;13.01;100.00
10806;BME280;5455;53.224;6.000;2023-03-24T12:46:19;100047.78;;;12.68;100.00
10806;BME280;5455;53.224;6.000;2023-03-24T12:57:01;100037.56;;;13.25;100.00
10806;BME280;5455;53.224;6.000;2023-03-24T12:59:40;100032.44;;;13.28;100.00
10806;BME280;5455;53.224;6.000;2023-03-24T13:02:35;100024.91;;;13.35;100.00
10806;BME280;5455;53.224;6.000;2023-03-24T13:05:13;100025.31;;;13.34;100.00
10806;BME280;5455;53.224;6.000;2023-03-24T13:07:42;100034.41;;;13.23;100.00
10806;BME280;5455;53.224;6.000;2023-03-24T13:10:18;100022.16;;;13.17;100.00
10806;BME280;5455;53.224;6.000;2023-03-24T13:12:51;100026.13;;;13.16;100.00
10806;BME280;5455;53.224;6.000;2023-03-24T13:15:43;100020.97;;;13.22;100.00
10806;BME280;5455;53.224;6.000;2023-03-24T13:21:10;100022.13;;;13.28;100.00
10806;BME280;5455;53.224;6.000;2023-03-24T13:31:46;100029.66;;;13.38;100.00
10806;BME280;5455;53.224;6.000;2023-03-24T13:34:24;100018.97;;;13.40;100.00
10806;BME280;5455;53.224;6.000;2023-03-24T13:36:58;100020.56;;;13.45;100.00
10806;BME280;5455;53.224;6.000;2023-03-24T13:39:26;100028.44;;;13.57;100.00
10806;BME280;5455;53.224;6.000;2023-03-24T13:41:56;100035.59;;;13.26;100.00
10806;BME280;5455;53.224;6.000;2023-03-24T13:44:29;100023.31;;;13.38;100.00
10806;BME280;5455;53.224;6.000;2023-03-24T13:47:15;100017.69;;;13.76;100.00
10806;BME280;5455;53.224;6.000;2023-03-24T13:49:58;100038.22;;;13.93;100.00
10806;BME280;5455;53.224;6.000;2023-03-24T13:52:34;100018.69;;;14.21;100.00
10806;BME280;5455;53.224;6.000;2023-03-24T13:55:12;100016.19;;;14.52;100.00
10806;BME280;5455;53.224;6.000;2023-03-24T13:57:55;100052.09;;;14.76;100.00
10806;BME280;5455;53.224;6.000;2023-03-24T14:00:25;100018.53;;;14.57;100.00
10806;BME280;5455;53.224;6.000;2023-03-24T14:03:13;100019.81;;;14.42;100.00
10806;BME280;5455;53.224;6.000;2023-03-24T14:06:04;100003.91;;;14.53;100.00
10806;BME280;5455;53.224;6.000;2023-03-24T14:19:36;100008.19;;;13.85;100.00
10806;BME280;5455;53.224;6.000;2023-03-24T14:24:36;100007.59;;;14.25;100.00
10806;BME280;5455;53.224;6.000;2023-03-24T14:27:34;100007.13;;;14.41;100.00
10806;BME280;5455;53.224;6.000;2023-03-24T14:30:11;99998.06;;;14.29;100.00
10806;BME280;5455;53.224;6.000;2023-03-24T14:32:46;100002.56;;;14.02;100.00
10806;BME280;5455;53.224;6.000;2023-03-24T14:35:24;99999.44;;;13.90;100.00
10806;BME280;5455;53.224;6.000;2023-03-24T14:38:00;100003.31;;;14.10;100.00
10806;BME280;5455;53.224;6.000;2023-03-24T14:40:38;99997.50;;;13.79;100.00
10806;BME280;5455;53.224;6.000;2023-03-24T14:46:31;99992.47;;;13.43;100.00
10806;BME280;5455;53.224;6.000;2023-03-24T14:54:53;99987.25;;;13.66;100.00
10806;BME280;5455;53.224;6.000;2023-03-24T14:57:27;99995.53;;;13.80;100.00
10806;BME280;5455;53.224;6.000;2023-03-24T14:59:57;99993.59;;;13.63;100.00
10806;BME280;5455;53.224;6.000;2023-03-24T15:11:00;99983.00;;;13.26;100.00
10806;BME280;5455;53.224;6.000;2023-03-24T15:13:47;99982.59;;;13.35;100.00
10806;BME280;5455;53.224;6.000;2023-03-24T15:23:59;99973.44;;;13.59;100.00
10806;BME280;5455;53.224;6.000;2023-03-24T15:26:29;99961.59;;;13.44;100.00
10806;BME280;5455;53.224;6.000;2023-03-24T15:29:06;99969.50;;;13.49;100.00
10806;BME280;5455;53.224;6.000;2023-03-24T15:31:34;99970.72;;;13.38;100.00
10806;BME280;5455;53.224;6.000;2023-03-24T15:34:27;99952.13;;;13.35;100.00
10806;BME280;5455;53.224;6.000;2023-03-24T15:36:59;99956.91;;;13.23;100.00
10806;BME280;5455;53.224;6.000;2023-03-24T15:39:38;99955.34;;;13.15;100.00
10806;BME280;5455;53.224;6.000;2023-03-24T15:42:13;99954.94;;;13.24;100.00
10806;BME280;5455;53.224;6.000;2023-03-24T15:44:42;99954.53;;;13.25;100.00
10806;BME280;5455;53.224;6.000;2023-03-24T15:47:26;99947.81;;;13.27;100.00
10806;BME280;5455;53.224;6.000;2023-03-24T15:49:59;99941.03;;;13.49;100.00
10806;BME280;5455;53.224;6.000;2023-03-24T15:52:34;99944.25;;;13.33;100.00
10806;BME280;5455;53.224;6.000;2023-03-24T15:55:27;99937.13;;;13.25;100.00
10806;BME280;5455;53.224;6.000;2023-03-24T15:57:58;99934.41;;;13.00;100.00
10806;BME280;5455;53.224;6.000;2023-03-24T16:00:36;99932.00;;;12.95;100.00
10806;BME280;5455;53.224;6.000;2023-03-24T16:03:05;99928.88;;;12.72;100.00
10806;BME280;5455;53.224;6.000;2023-03-24T16:05:33;99932.81;;;12.78;100.00
10806;BME280;5455;53.224;6.000;2023-03-24T16:08:21;99931.63;;;12.86;100.00
10806;BME280;5455;53.224;6.000;2023-03-24T16:11:03;99937.56;;;12.56;100.00
10806;BME280;5455;53.224;6.000;2023-03-24T16:13:33;99937.19;;;12.58;100.00
10806;BME280;5455;53.224;6.000;2023-03-24T16:16:26;99944.66;;;12.47;100.00
10806;BME280;5455;53.224;6.000;2023-03-24T16:18:54;99941.13;;;12.60;100.00
10806;BME280;5455;53.224;6.000;2023-03-24T16:21:26;99943.09;;;12.67;100.00
10806;BME280;5455;53.224;6.000;2023-03-24T16:23:56;99939.53;;;12.56;100.00
10806;BME280;5455;53.224;6.000;2023-03-24T16:26:25;99935.22;;;12.58;100.00